Time,TemperatureF,DewpointF,PressureIn,WindDirection,WindDirectionDegrees,WindSpeedMPH,WindSpeedGustMPH,Humidity,HourlyPrecipIn,Conditions,Clouds,dailyrainin,SolarRadiationWatts/m^2,SoftwareType,DateUTC
2013-02-14 00:12:00,37.1,31.0,30.35,South,182,3.0,-999.0,77,-99.99,,,0.00,0,weatherlink.com 1.10,2013-02-14 08:12:00,
2013-02-14 00:28:00,37.0,30.0,30.35,South,182,2.0,-999.0,76,-99.99,,,0.00,0,weatherlink.com 1.10,2013-02-14 08:28:00,
2013-02-14 00:42:00,36.5,31.0,30.35,South,182,0.0,-999.0,79,-99.99,,,0.00,0,weatherlink.com 1.10,2013-02-14 08:42:00,
2013-02-14 00:57:00,36.1,30.0,30.36,South,182,0.0,-999.0,79,-99.99,,,0.00,0,weatherlink.com 1.10,2013-02-14 08:57:00,
2013-02-14 01:12:00,35.5,30.0,30.36,South,182,2.0,-999.0,81,-99.99,,,0.00,0,weatherlink.com 1.10,2013-02-14 09:12:00,
2013-02-14 01:27:00,34.6,30.0,30.35,South,182,2.0,-999.0,82,-99.99,,,0.00,0,weatherlink.com 1.10,2013-02-14 09:27:00,
2013-02-14 01:43:00,34.5,30.0,30.36,South,182,3.0,-999.0,83,-99.99,,,0.00,0,weatherlink.com 1.10,2013-02-14 09:43:00,
2013-02-14 01:57:00,34.8,30.0,30.36,South,182,0.0,-999.0,83,-99.99,,,0.00,0,weatherlink.com 1.10,2013-02-14 09:57:00,
2013-02-14 02:12:00,35.3,31.0,30.37,South,182,1.0,-999.0,83,-99.99,,,0.00,0,weatherlink.com 1.10,2013-02-14 10:12:00,
2013-02-14 02:27:00,33.4,28.0,30.36,South,182,5.0,-999.0,81,-99.99,,,0.00,0,weatherlink.com 1.10,2013-02-14 10:27:00,
2013-02-14 02:42:00,33.6,30.0,30.36,South,182,4.0,-999.0,85,-99.99,,,0.00,0,weatherlink.com 1.10,2013-02-14 10:42:00,
2013-02-14 02:58:00,34.1,30.0,30.36,South,182,4.0,-999.0,83,-99.99,,,0.00,0,weatherlink.com 1.10,2013-02-14 10:58:00,
2013-02-14 03:12:00,32.9,29.0,30.36,SSW,192,3.0,-999.0,85,-99.99,,,0.00,0,weatherlink.com 1.10,2013-02-14 11:12:00,
2013-02-14 03:27:00,32.8,29.0,30.36,SSW,211,5.0,-999.0,86,-99.99,,,0.00,0,weatherlink.com 1.10,2013-02-14 11:27:00,
2013-02-14 03:42:00,34.9,30.0,30.36,SSW,211,3.0,-999.0,83,-99.99,,,0.00,0,weatherlink.com 1.10,2013-02-14 11:42:00,
2013-02-14 03:57:00,32.6,28.0,30.37,South,171,0.0,-999.0,82,-99.99,,,0.00,0,weatherlink.com 1.10,2013-02-14 11:57:00,
2013-02-14 04:12:00,33.0,29.0,30.38,South,171,2.0,-999.0,85,-99.99,,,0.00,0,weatherlink.com 1.10,2013-02-14 12:12:00,
2013-02-14 04:27:00,33.8,29.0,30.38,South,172,5.0,-999.0,83,-99.99,,,0.00,0,weatherlink.com 1.10,2013-02-14 12:27:00,
2013-02-14 04:43:00,33.2,29.0,30.38,South,173,4.0,-999.0,84,-99.99,,,0.00,0,weatherlink.com 1.10,2013-02-14 12:43:00,
2013-02-14 04:59:00,33.6,30.0,30.38,South,173,5.0,-999.0,85,-99.99,,,0.00,0,weatherlink.com 1.10,2013-02-14 12:59:00,
2013-02-14 05:12:00,34.5,30.0,30.38,South,173,5.0,-999.0,83,-99.99,,,0.00,0,weatherlink.com 1.10,2013-02-14 13:12:00,
2013-02-14 05:27:00,34.4,29.0,30.38,South,173,4.0,-999.0,82,-99.99,,,0.00,0,weatherlink.com 1.10,2013-02-14 13:27:00,
2013-02-14 05:42:00,33.8,29.0,30.38,South,173,5.0,-999.0,83,-99.99,,,0.00,0,weatherlink.com 1.10,2013-02-14 13:42:00,
2013-02-14 05:57:00,34.2,30.0,30.38,South,173,2.0,-999.0,84,-99.99,,,0.00,0,weatherlink.com 1.10,2013-02-14 13:57:00,
2013-02-14 06:12:00,33.8,29.0,30.39,South,173,5.0,-999.0,82,-99.99,,,0.00,0,weatherlink.com 1.10,2013-02-14 14:12:00,
2013-02-14 06:27:00,33.7,29.0,30.39,South,173,4.0,-999.0,83,-99.99,,,0.00,0,weatherlink.com 1.10,2013-02-14 14:27:00,
2013-02-14 06:43:00,31.8,27.0,30.39,SSW,193,5.0,-999.0,83,-99.99,,,0.00,0,weatherlink.com 1.10,2013-02-14 14:43:00,
2013-02-14 06:57:00,31.0,27.0,30.39,SSW,205,5.0,-999.0,86,-99.99,,,0.00,0,weatherlink.com 1.10,2013-02-14 14:57:00,
2013-02-14 07:13:00,32.7,29.0,30.39,SSW,205,4.0,-999.0,85,-99.99,,,0.00,5,weatherlink.com 1.10,2013-02-14 15:13:00,
2013-02-14 07:27:00,33.5,29.0,30.39,SSW,205,4.0,-999.0,83,-99.99,,,0.00,23,weatherlink.com 1.10,2013-02-14 15:27:00,
2013-02-14 07:42:00,33.8,29.0,30.40,SSW,205,3.0,-999.0,82,-99.99,,,0.00,65,weatherlink.com 1.10,2013-02-14 15:42:00,
2013-02-14 07:57:00,35.5,30.0,30.41,SSW,205,2.0,-999.0,80,-99.99,,,0.00,128,weatherlink.com 1.10,2013-02-14 15:57:00,
2013-02-14 08:12:00,37.3,31.0,30.41,SSW,205,3.0,-999.0,77,-99.99,,,0.00,174,weatherlink.com 1.10,2013-02-14 16:12:00,
2013-02-14 08:27:00,36.9,30.0,30.42,SSW,205,2.0,-999.0,77,-99.99,,,0.00,206,weatherlink.com 1.10,2013-02-14 16:27:00,
2013-02-14 08:57:00,38.5,32.0,30.43,SSW,205,0.0,-999.0,77,-99.99,,,0.00,299,weatherlink.com 1.10,2013-02-14 16:57:00,
2013-02-14 09:13:00,39.5,32.0,30.43,SSW,205,0.0,-999.0,75,-99.99,,,0.00,341,weatherlink.com 1.10,2013-02-14 17:13:00,
2013-02-14 09:28:00,42.2,33.0,30.43,SSW,205,2.0,-999.0,71,-99.99,,,0.00,378,weatherlink.com 1.10,2013-02-14 17:28:00,
2013-02-14 09:42:00,42.2,33.0,30.43,ESE,115,0.0,-999.0,71,-99.99,,,0.00,410,weatherlink.com 1.10,2013-02-14 17:42:00,
2013-02-14 09:57:00,43.4,33.0,30.43,ESE,115,2.0,-999.0,68,-99.99,,,0.00,446,weatherlink.com 1.10,2013-02-14 17:57:00,
2013-02-14 10:12:00,44.7,34.0,30.43,ESE,112,0.0,-999.0,66,-99.99,,,0.00,434,weatherlink.com 1.10,2013-02-14 18:12:00,
2013-02-14 10:28:00,45.2,34.0,30.42,ESE,110,4.0,-999.0,64,-99.99,,,0.00,490,weatherlink.com 1.10,2013-02-14 18:28:00,
2013-02-14 10:43:00,46.0,33.0,30.42,ESE,106,0.0,-999.0,61,-99.99,,,0.00,520,weatherlink.com 1.10,2013-02-14 18:43:00,
2013-02-14 10:58:00,46.8,33.0,30.43,ENE,61,3.0,-999.0,60,-99.99,,,0.00,541,weatherlink.com 1.10,2013-02-14 18:58:00,
2013-02-14 11:13:00,47.2,33.0,30.43,ENE,74,4.0,-999.0,58,-99.99,,,0.00,554,weatherlink.com 1.10,2013-02-14 19:13:00,
2013-02-14 11:28:00,48.0,33.0,30.43,ENE,70,1.0,-999.0,56,-99.99,,,0.00,566,weatherlink.com 1.10,2013-02-14 19:28:00,
2013-02-14 11:43:00,49.1,33.0,30.42,ENE,72,1.0,-999.0,54,-99.99,,,0.00,575,weatherlink.com 1.10,2013-02-14 19:43:00,
2013-02-14 11:58:00,50.0,34.0,30.41,East,101,4.0,-999.0,54,-99.99,,,0.00,584,weatherlink.com 1.10,2013-02-14 19:58:00,
2013-02-14 12:13:00,49.8,33.0,30.41,ESE,109,0.0,-999.0,53,-99.99,,,0.00,580,weatherlink.com 1.10,2013-02-14 20:13:00,
2013-02-14 12:28:00,50.9,34.0,30.41,ESE,115,5.0,-999.0,52,-99.99,,,0.00,584,weatherlink.com 1.10,2013-02-14 20:28:00,
2013-02-14 12:43:00,51.1,33.0,30.41,ENE,76,7.0,-999.0,51,-99.99,,,0.00,580,weatherlink.com 1.10,2013-02-14 20:43:00,
2013-02-14 12:58:00,50.7,33.0,30.40,ENE,75,2.0,-999.0,51,-99.99,,,0.00,341,weatherlink.com 1.10,2013-02-14 20:58:00,
2013-02-14 13:13:00,51.0,33.0,30.40,ENE,72,0.0,-999.0,51,-99.99,,,0.00,485,weatherlink.com 1.10,2013-02-14 21:13:00,
2013-02-14 13:28:00,51.9,33.0,30.39,ENE,61,0.0,-999.0,49,-99.99,,,0.00,584,weatherlink.com 1.10,2013-02-14 21:28:00,
2013-02-14 13:43:00,51.6,33.0,30.39,NNE,28,0.0,-999.0,50,-99.99,,,0.00,529,weatherlink.com 1.10,2013-02-14 21:43:00,
2013-02-14 13:58:00,51.7,33.0,30.39,NNE,15,0.0,-999.0,50,-99.99,,,0.00,471,weatherlink.com 1.10,2013-02-14 21:58:00,
2013-02-14 14:13:00,52.6,34.0,30.38,NE,38,0.0,-999.0,49,-99.99,,,0.00,480,weatherlink.com 1.10,2013-02-14 22:13:00,
2013-02-14 14:28:00,53.7,34.0,30.38,East,82,0.0,-999.0,48,-99.99,,,0.00,448,weatherlink.com 1.10,2013-02-14 22:28:00,
2013-02-14 14:43:00,53.3,34.0,30.38,ESE,107,4.0,-999.0,49,-99.99,,,0.00,401,weatherlink.com 1.10,2013-02-14 22:43:00,
2013-02-14 14:58:00,53.3,34.0,30.37,ENE,77,0.0,-999.0,49,-99.99,,,0.00,355,weatherlink.com 1.10,2013-02-14 22:58:00,
2013-02-14 15:13:00,53.8,35.0,30.37,East,84,2.0,-999.0,49,-99.99,,,0.00,283,weatherlink.com 1.10,2013-02-14 23:13:00,
2013-02-14 15:28:00,53.3,35.0,30.37,NE,46,1.0,-999.0,50,-99.99,,,0.00,257,weatherlink.com 1.10,2013-02-14 23:28:00,
2013-02-14 15:43:00,53.4,35.0,30.37,East,82,2.0,-999.0,50,-99.99,,,0.00,246,weatherlink.com 1.10,2013-02-14 23:43:00,
2013-02-14 15:58:00,53.0,35.0,30.37,East,90,2.0,-999.0,50,-99.99,,,0.00,204,weatherlink.com 1.10,2013-02-14 23:58:00,
2013-02-14 16:13:00,52.2,35.0,30.37,East,88,1.0,-999.0,52,-99.99,,,0.00,146,weatherlink.com 1.10,2013-02-15 00:13:00,
2013-02-14 16:28:00,51.9,35.0,30.37,ENE,74,3.0,-999.0,53,-99.99,,,0.00,97,weatherlink.com 1.10,2013-02-15 00:28:00,
2013-02-14 16:43:00,51.3,35.0,30.37,East,83,0.0,-999.0,54,-99.99,,,0.00,60,weatherlink.com 1.10,2013-02-15 00:43:00,
2013-02-14 16:58:00,50.6,34.0,30.36,ENE,75,1.0,-999.0,54,-99.99,,,0.00,32,weatherlink.com 1.10,2013-02-15 00:58:00,
2013-02-14 17:13:00,49.1,34.0,30.36,ENE,76,0.0,-999.0,57,-99.99,,,0.00,19,weatherlink.com 1.10,2013-02-15 01:13:00,
2013-02-14 17:28:00,47.9,34.0,30.36,ENE,76,0.0,-999.0,59,-99.99,,,0.00,12,weatherlink.com 1.10,2013-02-15 01:28:00,
2013-02-14 17:43:00,47.2,34.0,30.36,ENE,76,0.0,-999.0,61,-99.99,,,0.00,5,weatherlink.com 1.10,2013-02-15 01:43:00,
2013-02-14 17:58:00,46.8,34.0,30.37,ENE,76,0.0,-999.0,62,-99.99,,,0.00,0,weatherlink.com 1.10,2013-02-15 01:58:00,
2013-02-14 18:13:00,46.1,34.0,30.38,ENE,76,0.0,-999.0,63,-99.99,,,0.00,0,weatherlink.com 1.10,2013-02-15 02:13:00,
2013-02-14 18:28:00,45.6,34.0,30.38,NE,51,3.0,-999.0,65,-99.99,,,0.00,0,weatherlink.com 1.10,2013-02-15 02:28:00,
2013-02-14 18:43:00,45.0,36.0,30.39,NNE,17,2.0,-999.0,70,-99.99,,,0.00,0,weatherlink.com 1.10,2013-02-15 02:43:00,
2013-02-14 18:58:00,44.4,36.0,30.40,NNE,19,1.0,-999.0,72,-99.99,,,0.00,0,weatherlink.com 1.10,2013-02-15 02:58:00,
2013-02-14 19:13:00,43.8,36.0,30.40,NNE,19,3.0,-999.0,74,-99.99,,,0.00,0,weatherlink.com 1.10,2013-02-15 03:13:00,
2013-02-14 19:28:00,43.1,36.0,30.40,NNE,19,1.0,-999.0,76,-99.99,,,0.00,0,weatherlink.com 1.10,2013-02-15 03:28:00,
2013-02-14 19:43:00,42.5,36.0,30.41,NNE,19,0.0,-999.0,78,-99.99,,,0.00,0,weatherlink.com 1.10,2013-02-15 03:43:00,
2013-02-14 19:58:00,42.4,36.0,30.40,NNE,19,2.0,-999.0,78,-99.99,,,0.00,0,weatherlink.com 1.10,2013-02-15 03:58:00,
2013-02-14 20:14:00,40.9,34.0,30.40,NW,309,4.0,-999.0,77,-99.99,,,0.00,0,weatherlink.com 1.10,2013-02-15 04:14:00,
2013-02-14 20:28:00,41.9,36.0,30.40,NW,308,1.0,-999.0,80,-99.99,,,0.00,0,weatherlink.com 1.10,2013-02-15 04:28:00,
2013-02-14 20:43:00,39.6,34.0,30.40,SSW,212,4.0,-999.0,80,-99.99,,,0.00,0,weatherlink.com 1.10,2013-02-15 04:43:00,
2013-02-14 20:58:00,39.8,35.0,30.40,SSW,212,5.0,-999.0,82,-99.99,,,0.00,0,weatherlink.com 1.10,2013-02-15 04:58:00,
2013-02-14 21:13:00,39.5,34.0,30.40,SSW,211,4.0,-999.0,82,-99.99,,,0.00,0,weatherlink.com 1.10,2013-02-15 05:13:00,
2013-02-14 21:43:00,40.5,35.0,30.40,SSW,211,4.0,-999.0,80,-99.99,,,0.00,0,weatherlink.com 1.10,2013-02-15 05:43:00,
2013-02-14 21:58:00,39.0,34.0,30.40,SSW,211,4.0,-999.0,83,-99.99,,,0.00,0,weatherlink.com 1.10,2013-02-15 05:58:00,
2013-02-14 22:13:00,38.7,34.0,30.40,SSW,213,5.0,-999.0,84,-99.99,,,0.00,0,weatherlink.com 1.10,2013-02-15 06:13:00,
2013-02-14 22:43:00,38.4,34.0,30.40,SSW,211,4.0,-999.0,85,-99.99,,,0.00,0,weatherlink.com 1.10,2013-02-15 06:43:00,
2013-02-14 22:58:00,38.7,34.0,30.39,SSW,200,5.0,-999.0,83,-99.99,,,0.00,0,weatherlink.com 1.10,2013-02-15 06:58:00,
2013-02-14 23:13:00,38.7,34.0,30.39,SSW,196,4.0,-999.0,83,-99.99,,,0.00,0,weatherlink.com 1.10,2013-02-15 07:13:00,
2013-02-14 23:28:00,39.7,35.0,30.39,SSW,194,3.0,-999.0,84,-99.99,,,0.00,0,weatherlink.com 1.10,2013-02-15 07:28:00,
2013-02-14 23:43:00,40.9,36.0,30.39,South,188,2.0,-999.0,82,-99.99,,,0.00,0,weatherlink.com 1.10,2013-02-15 07:43:00,
2013-02-14 23:58:00,40.9,36.0,30.39,South,185,2.0,-999.0,81,-99.99,,,0.00,0,weatherlink.com 1.10,2013-02-15 07:58:00,